sensor_id;sensor_type;location;lat;lon;timestamp;P1;durP1;ratioP1;P2;durP2;ratioP2
6145;SDS011;3104;50.348;7.620;2022-08-21T00:01:10;4.30;;;2.87;;
6145;SDS011;3104;50.348;7.620;2022-08-21T00:03:38;3.83;;;3.00;;
6145;SDS011;3104;50.348;7.620;2022-08-21T00:06:04;2.93;;;2.73;;
6145;SDS011;3104;50.348;7.620;2022-08-21T00:08:29;5.60;;;3.73;;
6145;SDS011;3104;50.348;7.620;2022-08-21T00:10:55;3.93;;;3.20;;
6145;SDS011;3104;50.348;7.620;2022-08-21T00:13:21;3.40;;;3.10;;
6145;SDS011;3104;50.348;7.620;2022-08-21T00:15:47;5.63;;;3.57;;
6145;SDS011;3104;50.348;7.620;2022-08-21T00:18:13;3.83;;;3.07;;
6145;SDS011;3104;50.348;7.620;2022-08-21T00:20:40;4.50;;;3.77;;
6145;SDS011;3104;50.348;7.620;2022-08-21T00:23:07;6.10;;;3.60;;
6145;SDS011;3104;50.348;7.620;2022-08-21T00:25:33;3.70;;;3.10;;
6145;SDS011;3104;50.348;7.620;2022-08-21T00:27:59;5.33;;;3.07;;
6145;SDS011;3104;50.348;7.620;2022-08-21T00:30:26;4.90;;;3.43;;
6145;SDS011;3104;50.348;7.620;2022-08-21T00:32:54;3.60;;;3.30;;
6145;SDS011;3104;50.348;7.620;2022-08-21T00:35:22;4.67;;;3.60;;
6145;SDS011;3104;50.348;7.620;2022-08-21T00:37:51;7.20;;;3.20;;
6145;SDS011;3104;50.348;7.620;2022-08-21T00:40:19;3.37;;;3.07;;
6145;SDS011;3104;50.348;7.620;2022-08-21T00:42:48;5.43;;;3.63;;
6145;SDS011;3104;50.348;7.620;2022-08-21T00:45:15;5.50;;;2.97;;
6145;SDS011;3104;50.348;7.620;2022-08-21T00:47:40;6.13;;;3.40;;
6145;SDS011;3104;50.348;7.620;2022-08-21T00:50:07;5.97;;;5.00;;
6145;SDS011;3104;50.348;7.620;2022-08-21T00:52:35;3.50;;;3.17;;
6145;SDS011;3104;50.348;7.620;2022-08-21T00:55:02;5.37;;;3.40;;
6145;SDS011;3104;50.348;7.620;2022-08-21T00:57:33;3.50;;;3.17;;
6145;SDS011;3104;50.348;7.620;2022-08-21T01:00:03;11.60;;;3.80;;
6145;SDS011;3104;50.348;7.620;2022-08-21T01:02:31;7.60;;;4.30;;
6145;SDS011;3104;50.348;7.620;2022-08-21T01:04:57;5.93;;;3.87;;
6145;SDS011;3104;50.348;7.620;2022-08-21T01:07:23;5.80;;;3.37;;
6145;SDS011;3104;50.348;7.620;2022-08-21T01:09:50;6.70;;;4.03;;
6145;SDS011;3104;50.348;7.620;2022-08-21T01:12:16;5.00;;;3.60;;
6145;SDS011;3104;50.348;7.620;2022-08-21T01:14:42;4.67;;;3.50;;
6145;SDS011;3104;50.348;7.620;2022-08-21T01:17:09;4.70;;;4.30;;
6145;SDS011;3104;50.348;7.620;2022-08-21T01:19:37;5.33;;;3.37;;
6145;SDS011;3104;50.348;7.620;2022-08-21T01:22:03;4.33;;;3.93;;
6145;SDS011;3104;50.348;7.620;2022-08-21T01:24:29;4.27;;;3.80;;
6145;SDS011;3104;50.348;7.620;2022-08-21T01:26:56;4.67;;;3.50;;
6145;SDS011;3104;50.348;7.620;2022-08-21T01:29:29;5.60;;;4.23;;
6145;SDS011;3104;50.348;7.620;2022-08-21T01:32:15;4.33;;;3.47;;
6145;SDS011;3104;50.348;7.620;2022-08-21T01:34:44;4.03;;;3.73;;
6145;SDS011;3104;50.348;7.620;2022-08-21T01:37:11;4.70;;;3.80;;
6145;SDS011;3104;50.348;7.620;2022-08-21T01:39:37;6.10;;;3.90;;
6145;SDS011;3104;50.348;7.620;2022-08-21T01:42:04;7.37;;;4.13;;
6145;SDS011;3104;50.348;7.620;2022-08-21T01:44:30;6.50;;;4.40;;
6145;SDS011;3104;50.348;7.620;2022-08-21T01:46:57;4.90;;;4.50;;
6145;SDS011;3104;50.348;7.620;2022-08-21T01:49:25;6.37;;;4.50;;
6145;SDS011;3104;50.348;7.620;2022-08-21T01:51:51;4.77;;;4.27;;
6145;SDS011;3104;50.348;7.620;2022-08-21T01:54:17;7.10;;;4.17;;
6145;SDS011;3104;50.348;7.620;2022-08-21T01:56:44;8.03;;;4.10;;
6145;SDS011;3104;50.348;7.620;2022-08-21T01:59:12;5.47;;;4.00;;
6145;SDS011;3104;50.348;7.620;2022-08-21T02:01:38;6.77;;;4.47;;
6145;SDS011;3104;50.348;7.620;2022-08-21T02:04:05;4.70;;;4.27;;
6145;SDS011;3104;50.348;7.620;2022-08-21T02:06:31;4.13;;;3.80;;
6145;SDS011;3104;50.348;7.620;2022-08-21T02:08:57;4.63;;;4.23;;
6145;SDS011;3104;50.348;7.620;2022-08-21T02:11:23;5.40;;;3.90;;
6145;SDS011;3104;50.348;7.620;2022-08-21T02:13:49;8.63;;;4.83;;
6145;SDS011;3104;50.348;7.620;2022-08-21T02:16:14;6.00;;;4.40;;
6145;SDS011;3104;50.348;7.620;2022-08-21T02:18:40;4.80;;;4.23;;
6145;SDS011;3104;50.348;7.620;2022-08-21T02:21:06;6.00;;;4.70;;
6145;SDS011;3104;50.348;7.620;2022-08-21T02:23:32;5.17;;;4.13;;
6145;SDS011;3104;50.348;7.620;2022-08-21T02:25:58;6.17;;;4.23;;
6145;SDS011;3104;50.348;7.620;2022-08-21T02:28:25;4.90;;;4.50;;
6145;SDS011;3104;50.348;7.620;2022-08-21T02:30:51;6.77;;;4.60;;
6145;SDS011;3104;50.348;7.620;2022-08-21T02:33:17;5.57;;;5.03;;
6145;SDS011;3104;50.348;7.620;2022-08-21T02:35:44;6.37;;;4.70;;
6145;SDS011;3104;50.348;7.620;2022-08-21T02:38:12;5.23;;;4.00;;
6145;SDS011;3104;50.348;7.620;2022-08-21T02:40:42;4.67;;;4.07;;
6145;SDS011;3104;50.348;7.620;2022-08-21T02:43:09;5.57;;;4.57;;
6145;SDS011;3104;50.348;7.620;2022-08-21T02:45:36;5.37;;;4.20;;
6145;SDS011;3104;50.348;7.620;2022-08-21T02:48:07;6.37;;;4.53;;
6145;SDS011;3104;50.348;7.620;2022-08-21T02:50:36;8.43;;;5.13;;
6145;SDS011;3104;50.348;7.620;2022-08-21T02:53:04;5.23;;;4.40;;
6145;SDS011;3104;50.348;7.620;2022-08-21T02:55:31;6.00;;;4.77;;
6145;SDS011;3104;50.348;7.620;2022-08-21T02:57:58;5.07;;;4.10;;
6145;SDS011;3104;50.348;7.620;2022-08-21T03:00:26;5.27;;;4.50;;
6145;SDS011;3104;50.348;7.620;2022-08-21T03:02:53;5.23;;;4.57;;
6145;SDS011;3104;50.348;7.620;2022-08-21T03:05:20;9.03;;;5.43;;
6145;SDS011;3104;50.348;7.620;2022-08-21T03:07:46;8.23;;;5.50;;
6145;SDS011;3104;50.348;7.620;2022-08-21T03:10:13;4.40;;;4.00;;
6145;SDS011;3104;50.348;7.620;2022-08-21T03:12:39;5.60;;;4.90;;
6145;SDS011;3104;50.348;7.620;2022-08-21T03:15:06;12.97;;;6.10;;
6145;SDS011;3104;50.348;7.620;2022-08-21T03:17:38;4.53;;;4.10;;
6145;SDS011;3104;50.348;7.620;2022-08-21T03:20:05;5.20;;;3.87;;
6145;SDS011;3104;50.348;7.620;2022-08-21T03:22:31;6.03;;;3.80;;
6145;SDS011;3104;50.348;7.620;2022-08-21T03:24:57;5.37;;;4.00;;
6145;SDS011;3104;50.348;7.620;2022-08-21T03:27:24;9.77;;;5.40;;
6145;SDS011;3104;50.348;7.620;2022-08-21T03:29:51;4.23;;;3.87;;
6145;SDS011;3104;50.348;7.620;2022-08-21T03:32:17;5.40;;;4.17;;
6145;SDS011;3104;50.348;7.620;2022-08-21T03:34:44;6.07;;;4.00;;
6145;SDS011;3104;50.348;7.620;2022-08-21T03:37:10;6.33;;;4.63;;
6145;SDS011;3104;50.348;7.620;2022-08-21T03:39:36;4.63;;;4.03;;
6145;SDS011;3104;50.348;7.620;2022-08-21T03:42:02;5.97;;;4.63;;
6145;SDS011;3104;50.348;7.620;2022-08-21T03:44:28;4.80;;;4.30;;
6145;SDS011;3104;50.348;7.620;2022-08-21T03:46:54;4.83;;;4.33;;
6145;SDS011;3104;50.348;7.620;2022-08-21T03:49:20;9.13;;;5.30;;
6145;SDS011;3104;50.348;7.620;2022-08-21T03:51:46;7.33;;;4.67;;
6145;SDS011;3104;50.348;7.620;2022-08-21T03:54:12;8.20;;;4.80;;
6145;SDS011;3104;50.348;7.620;2022-08-21T03:56:37;6.70;;;4.90;;
6145;SDS011;3104;50.348;7.620;2022-08-21T03:59:04;5.40;;;4.60;;
6145;SDS011;3104;50.348;7.620;2022-08-21T04:01:30;5.70;;;4.43;;
6145;SDS011;3104;50.348;7.620;2022-08-21T04:03:55;5.23;;;4.20;;
6145;SDS011;3104;50.348;7.620;2022-08-21T04:06:21;7.03;;;5.00;;
6145;SDS011;3104;50.348;7.620;2022-08-21T04:08:47;6.30;;;4.97;;
6145;SDS011;3104;50.348;7.620;2022-08-21T04:11:12;5.57;;;4.20;;
6145;SDS011;3104;50.348;7.620;2022-08-21T04:13:39;5.30;;;4.70;;
6145;SDS011;3104;50.348;7.620;2022-08-21T04:16:05;7.13;;;4.10;;
6145;SDS011;3104;50.348;7.620;2022-08-21T04:18:32;5.80;;;4.57;;
6145;SDS011;3104;50.348;7.620;2022-08-21T04:20:57;5.73;;;4.27;;
6145;SDS011;3104;50.348;7.620;2022-08-21T04:23:25;4.57;;;4.17;;
6145;SDS011;3104;50.348;7.620;2022-08-21T04:25:52;6.17;;;4.30;;
6145;SDS011;3104;50.348;7.620;2022-08-21T04:28:19;6.07;;;5.20;;
6145;SDS011;3104;50.348;7.620;2022-08-21T04:30:45;5.50;;;4.47;;
6145;SDS011;3104;50.348;7.620;2022-08-21T04:33:11;4.53;;;4.20;;
6145;SDS011;3104;50.348;7.620;2022-08-21T04:35:36;5.23;;;4.40;;
6145;SDS011;3104;50.348;7.620;2022-08-21T04:38:02;7.47;;;5.43;;
6145;SDS011;3104;50.348;7.620;2022-08-21T04:40:28;6.47;;;5.77;;
6145;SDS011;3104;50.348;7.620;2022-08-21T04:42:55;5.70;;;5.20;;
6145;SDS011;3104;50.348;7.620;2022-08-21T04:47:58;4.73;;;4.33;;
6145;SDS011;3104;50.348;7.620;2022-08-21T04:50:36;7.53;;;4.80;;
6145;SDS011;3104;50.348;7.620;2022-08-21T04:53:06;9.00;;;5.10;;
6145;SDS011;3104;50.348;7.620;2022-08-21T04:55:35;5.77;;;5.27;;
6145;SDS011;3104;50.348;7.620;2022-08-21T04:58:02;6.93;;;4.70;;
6145;SDS011;3104;50.348;7.620;2022-08-21T05:00:32;5.30;;;4.30;;
6145;SDS011;3104;50.348;7.620;2022-08-21T05:02:58;7.00;;;5.13;;
6145;SDS011;3104;50.348;7.620;2022-08-21T05:05:29;5.93;;;4.40;;
6145;SDS011;3104;50.348;7.620;2022-08-21T05:07:55;5.50;;;4.90;;
6145;SDS011;3104;50.348;7.620;2022-08-21T05:10:23;8.07;;;5.50;;
6145;SDS011;3104;50.348;7.620;2022-08-21T05:12:50;5.50;;;4.80;;
6145;SDS011;3104;50.348;7.620;2022-08-21T05:15:15;6.23;;;5.00;;
6145;SDS011;3104;50.348;7.620;2022-08-21T05:17:42;8.17;;;5.20;;
6145;SDS011;3104;50.348;7.620;2022-08-21T05:20:08;5.90;;;4.23;;
6145;SDS011;3104;50.348;7.620;2022-08-21T05:22:35;5.97;;;5.23;;
6145;SDS011;3104;50.348;7.620;2022-08-21T05:25:01;8.77;;;5.30;;
6145;SDS011;3104;50.348;7.620;2022-08-21T05:27:26;5.73;;;5.30;;
6145;SDS011;3104;50.348;7.620;2022-08-21T05:29:54;6.90;;;5.30;;
6145;SDS011;3104;50.348;7.620;2022-08-21T05:32:21;5.63;;;4.77;;
6145;SDS011;3104;50.348;7.620;2022-08-21T05:34:46;6.93;;;4.93;;
6145;SDS011;3104;50.348;7.620;2022-08-21T05:37:12;5.83;;;4.90;;
6145;SDS011;3104;50.348;7.620;2022-08-21T05:39:38;6.30;;;4.60;;
6145;SDS011;3104;50.348;7.620;2022-08-21T05:42:04;4.93;;;4.53;;
6145;SDS011;3104;50.348;7.620;2022-08-21T05:44:29;6.07;;;4.60;;
6145;SDS011;3104;50.348;7.620;2022-08-21T05:46:55;5.80;;;5.30;;
6145;SDS011;3104;50.348;7.620;2022-08-21T05:49:34;6.67;;;5.53;;
6145;SDS011;3104;50.348;7.620;2022-08-21T05:52:01;7.03;;;5.00;;
6145;SDS011;3104;50.348;7.620;2022-08-21T05:54:27;5.13;;;4.67;;
6145;SDS011;3104;50.348;7.620;2022-08-21T05:56:52;6.87;;;6.17;;
6145;SDS011;3104;50.348;7.620;2022-08-21T05:59:18;5.70;;;5.10;;
6145;SDS011;3104;50.348;7.620;2022-08-21T06:01:44;5.10;;;4.60;;
6145;SDS011;3104;50.348;7.620;2022-08-21T06:04:10;6.70;;;4.57;;
6145;SDS011;3104;50.348;7.620;2022-08-21T06:06:36;5.13;;;4.57;;
6145;SDS011;3104;50.348;7.620;2022-08-21T06:09:02;7.90;;;5.20;;
6145;SDS011;3104;50.348;7.620;2022-08-21T06:11:29;5.57;;;4.83;;
6145;SDS011;3104;50.348;7.620;2022-08-21T06:13:56;6.03;;;4.60;;
6145;SDS011;3104;50.348;7.620;2022-08-21T06:16:22;5.67;;;5.10;;
6145;SDS011;3104;50.348;7.620;2022-08-21T06:18:48;4.47;;;4.13;;
6145;SDS011;3104;50.348;7.620;2022-08-21T06:21:14;8.63;;;5.67;;
6145;SDS011;3104;50.348;7.620;2022-08-21T06:23:40;5.87;;;5.33;;
6145;SDS011;3104;50.348;7.620;2022-08-21T06:26:07;6.47;;;5.40;;
6145;SDS011;3104;50.348;7.620;2022-08-21T06:28:34;6.07;;;4.80;;
6145;SDS011;3104;50.348;7.620;2022-08-21T06:31:00;7.47;;;5.33;;
6145;SDS011;3104;50.348;7.620;2022-08-21T06:33:26;6.10;;;4.70;;
6145;SDS011;3104;50.348;7.620;2022-08-21T06:35:52;5.40;;;4.90;;
6145;SDS011;3104;50.348;7.620;2022-08-21T06:38:17;7.97;;;6.00;;
6145;SDS011;3104;50.348;7.620;2022-08-21T06:40:44;8.37;;;5.30;;
6145;SDS011;3104;50.348;7.620;2022-08-21T06:43:14;7.10;;;5.67;;
6145;SDS011;3104;50.348;7.620;2022-08-21T06:45:41;7.80;;;5.20;;
6145;SDS011;3104;50.348;7.620;2022-08-21T06:48:07;5.80;;;4.53;;
6145;SDS011;3104;50.348;7.620;2022-08-21T06:50:33;8.87;;;5.70;;
6145;SDS011;3104;50.348;7.620;2022-08-21T06:53:04;6.67;;;5.77;;
6145;SDS011;3104;50.348;7.620;2022-08-21T06:55:34;5.53;;;5.03;;
6145;SDS011;3104;50.348;7.620;2022-08-21T06:58:01;7.90;;;4.10;;
6145;SDS011;3104;50.348;7.620;2022-08-21T07:00:29;4.87;;;4.20;;
6145;SDS011;3104;50.348;7.620;2022-08-21T07:02:55;5.77;;;4.83;;
6145;SDS011;3104;50.348;7.620;2022-08-21T07:05:21;6.30;;;5.80;;
6145;SDS011;3104;50.348;7.620;2022-08-21T07:07:47;7.57;;;4.17;;
6145;SDS011;3104;50.348;7.620;2022-08-21T07:10:14;8.27;;;4.60;;
6145;SDS011;3104;50.348;7.620;2022-08-21T07:12:40;7.30;;;5.40;;
6145;SDS011;3104;50.348;7.620;2022-08-21T07:15:06;6.33;;;5.20;;
6145;SDS011;3104;50.348;7.620;2022-08-21T07:17:32;8.07;;;4.93;;
6145;SDS011;3104;50.348;7.620;2022-08-21T07:19:58;7.20;;;5.20;;
6145;SDS011;3104;50.348;7.620;2022-08-21T07:22:23;6.23;;;5.63;;
6145;SDS011;3104;50.348;7.620;2022-08-21T07:24:49;9.53;;;5.93;;
6145;SDS011;3104;50.348;7.620;2022-08-21T07:27:16;6.47;;;5.07;;
6145;SDS011;3104;50.348;7.620;2022-08-21T07:29:41;6.67;;;4.93;;
6145;SDS011;3104;50.348;7.620;2022-08-21T07:32:07;4.77;;;4.30;;
6145;SDS011;3104;50.348;7.620;2022-08-21T07:34:33;5.00;;;4.20;;
6145;SDS011;3104;50.348;7.620;2022-08-21T07:36:58;6.13;;;5.20;;
6145;SDS011;3104;50.348;7.620;2022-08-21T07:39:24;5.43;;;4.30;;
6145;SDS011;3104;50.348;7.620;2022-08-21T07:41:50;5.60;;;4.43;;
6145;SDS011;3104;50.348;7.620;2022-08-21T07:44:15;5.00;;;4.30;;
6145;SDS011;3104;50.348;7.620;2022-08-21T07:46:41;8.37;;;4.80;;
6145;SDS011;3104;50.348;7.620;2022-08-21T07:49:07;6.20;;;5.03;;
6145;SDS011;3104;50.348;7.620;2022-08-21T07:51:32;5.17;;;4.67;;
6145;SDS011;3104;50.348;7.620;2022-08-21T07:53:59;5.67;;;5.17;;
6145;SDS011;3104;50.348;7.620;2022-08-21T07:56:26;8.07;;;5.00;;
6145;SDS011;3104;50.348;7.620;2022-08-21T07:58:52;13.97;;;5.40;;
6145;SDS011;3104;50.348;7.620;2022-08-21T08:01:19;8.50;;;4.50;;
6145;SDS011;3104;50.348;7.620;2022-08-21T08:03:45;5.23;;;4.40;;
6145;SDS011;3104;50.348;7.620;2022-08-21T08:06:11;11.90;;;5.57;;
6145;SDS011;3104;50.348;7.620;2022-08-21T08:08:41;6.37;;;5.60;;
6145;SDS011;3104;50.348;7.620;2022-08-21T08:11:08;5.93;;;4.73;;
6145;SDS011;3104;50.348;7.620;2022-08-21T08:13:43;6.03;;;5.10;;
6145;SDS011;3104;50.348;7.620;2022-08-21T08:16:11;8.47;;;5.50;;
6145;SDS011;3104;50.348;7.620;2022-08-21T08:18:37;5.77;;;5.17;;
6145;SDS011;3104;50.348;7.620;2022-08-21T08:21:03;11.97;;;6.80;;
6145;SDS011;3104;50.348;7.620;2022-08-21T08:23:29;9.47;;;5.23;;
6145;SDS011;3104;50.348;7.620;2022-08-21T08:25:55;6.50;;;4.97;;
6145;SDS011;3104;50.348;7.620;2022-08-21T08:28:21;7.53;;;4.83;;
6145;SDS011;3104;50.348;7.620;2022-08-21T08:30:47;8.50;;;5.00;;
6145;SDS011;3104;50.348;7.620;2022-08-21T08:33:14;8.70;;;5.70;;
6145;SDS011;3104;50.348;7.620;2022-08-21T08:35:41;11.30;;;5.57;;
6145;SDS011;3104;50.348;7.620;2022-08-21T08:38:09;10.60;;;6.20;;
6145;SDS011;3104;50.348;7.620;2022-08-21T08:40:43;8.13;;;5.30;;
6145;SDS011;3104;50.348;7.620;2022-08-21T08:43:33;9.10;;;6.87;;
6145;SDS011;3104;50.348;7.620;2022-08-21T08:46:01;12.33;;;6.07;;
6145;SDS011;3104;50.348;7.620;2022-08-21T08:56:57;6.40;;;5.57;;
6145;SDS011;3104;50.348;7.620;2022-08-21T08:59:32;9.70;;;6.63;;
6145;SDS011;3104;50.348;7.620;2022-08-21T09:02:09;7.73;;;5.77;;
6145;SDS011;3104;50.348;7.620;2022-08-21T09:04:36;12.17;;;5.43;;
6145;SDS011;3104;50.348;7.620;2022-08-21T09:07:25;6.53;;;4.60;;
6145;SDS011;3104;50.348;7.620;2022-08-21T09:12:46;4.20;;;3.80;;
6145;SDS011;3104;50.348;7.620;2022-08-21T09:15:37;5.63;;;4.40;;
6145;SDS011;3104;50.348;7.620;2022-08-21T09:21:03;4.87;;;3.43;;
6145;SDS011;3104;50.348;7.620;2022-08-21T09:26:18;4.83;;;3.57;;
6145;SDS011;3104;50.348;7.620;2022-08-21T09:28:45;5.23;;;3.77;;
6145;SDS011;3104;50.348;7.620;2022-08-21T09:31:23;7.50;;;3.13;;
6145;SDS011;3104;50.348;7.620;2022-08-21T09:33:58;5.33;;;2.90;;
6145;SDS011;3104;50.348;7.620;2022-08-21T09:36:29;8.50;;;3.37;;
6145;SDS011;3104;50.348;7.620;2022-08-21T09:39:05;3.40;;;2.50;;
6145;SDS011;3104;50.348;7.620;2022-08-21T09:41:33;4.60;;;3.60;;
6145;SDS011;3104;50.348;7.620;2022-08-21T09:44:03;5.27;;;3.27;;
6145;SDS011;3104;50.348;7.620;2022-08-21T09:46:31;5.03;;;3.40;;
6145;SDS011;3104;50.348;7.620;2022-08-21T09:48:58;8.30;;;2.90;;
6145;SDS011;3104;50.348;7.620;2022-08-21T09:51:27;3.03;;;2.80;;
6145;SDS011;3104;50.348;7.620;2022-08-21T09:56:37;4.50;;;2.67;;
6145;SDS011;3104;50.348;7.620;2022-08-21T09:59:34;6.17;;;2.83;;
6145;SDS011;3104;50.348;7.620;2022-08-21T10:02:22;5.63;;;3.33;;
6145;SDS011;3104;50.348;7.620;2022-08-21T10:04:51;3.37;;;2.80;;
6145;SDS011;3104;50.348;7.620;2022-08-21T10:07:22;3.00;;;2.70;;
6145;SDS011;3104;50.348;7.620;2022-08-21T10:18:27;8.80;;;2.10;;
6145;SDS011;3104;50.348;7.620;2022-08-21T10:39:36;2.30;;;2.10;;
6145;SDS011;3104;50.348;7.620;2022-08-21T10:42:36;4.60;;;2.50;;
6145;SDS011;3104;50.348;7.620;2022-08-21T10:47:48;3.00;;;2.60;;
6145;SDS011;3104;50.348;7.620;2022-08-21T10:50:35;4.53;;;2.90;;
6145;SDS011;3104;50.348;7.620;2022-08-21T10:55:44;3.40;;;3.00;;
6145;SDS011;3104;50.348;7.620;2022-08-21T11:03:43;2.93;;;2.67;;
6145;SDS011;3104;50.348;7.620;2022-08-21T11:06:24;5.03;;;3.00;;
6145;SDS011;3104;50.348;7.620;2022-08-21T11:09:02;3.70;;;2.50;;
6145;SDS011;3104;50.348;7.620;2022-08-21T11:11:32;4.27;;;2.57;;
6145;SDS011;3104;50.348;7.620;2022-08-21T11:14:15;4.57;;;2.80;;
6145;SDS011;3104;50.348;7.620;2022-08-21T11:16:44;2.43;;;2.20;;
6145;SDS011;3104;50.348;7.620;2022-08-21T11:19:15;2.73;;;2.53;;
6145;SDS011;3104;50.348;7.620;2022-08-21T11:27:19;4.53;;;2.67;;
6145;SDS011;3104;50.348;7.620;2022-08-21T11:29:55;3.50;;;2.90;;
6145;SDS011;3104;50.348;7.620;2022-08-21T11:35:03;4.30;;;2.67;;
6145;SDS011;3104;50.348;7.620;2022-08-21T11:41:13;5.40;;;2.30;;
6145;SDS011;3104;50.348;7.620;2022-08-21T11:43:55;5.23;;;2.67;;
6145;SDS011;3104;50.348;7.620;2022-08-21T11:46:59;3.07;;;2.80;;
6145;SDS011;3104;50.348;7.620;2022-08-21T11:52:41;3.50;;;3.20;;
6145;SDS011;3104;50.348;7.620;2022-08-21T11:58:39;7.00;;;3.27;;
6145;SDS011;3104;50.348;7.620;2022-08-21T12:01:06;2.50;;;2.30;;
6145;SDS011;3104;50.348;7.620;2022-08-21T12:03:35;7.23;;;3.10;;
6145;SDS011;3104;50.348;7.620;2022-08-21T12:06:07;3.87;;;2.80;;
6145;SDS011;3104;50.348;7.620;2022-08-21T12:13:29;5.30;;;3.13;;
6145;SDS011;3104;50.348;7.620;2022-08-21T12:16:14;3.07;;;2.77;;
6145;SDS011;3104;50.348;7.620;2022-08-21T12:19:01;4.20;;;2.63;;
6145;SDS011;3104;50.348;7.620;2022-08-21T12:21:31;5.77;;;2.90;;
6145;SDS011;3104;50.348;7.620;2022-08-21T12:24:06;3.30;;;2.10;;
6145;SDS011;3104;50.348;7.620;2022-08-21T12:26:58;2.90;;;2.63;;
6145;SDS011;3104;50.348;7.620;2022-08-21T12:29:37;3.77;;;2.63;;
6145;SDS011;3104;50.348;7.620;2022-08-21T12:34:36;3.47;;;2.73;;
6145;SDS011;3104;50.348;7.620;2022-08-21T12:40:36;3.07;;;2.87;;
6145;SDS011;3104;50.348;7.620;2022-08-21T12:43:07;3.10;;;2.67;;
6145;SDS011;3104;50.348;7.620;2022-08-21T12:45:50;7.60;;;3.07;;
6145;SDS011;3104;50.348;7.620;2022-08-21T12:53:44;3.83;;;3.17;;
6145;SDS011;3104;50.348;7.620;2022-08-21T12:56:12;4.07;;;2.53;;
6145;SDS011;3104;50.348;7.620;2022-08-21T12:58:46;3.40;;;2.50;;
6145;SDS011;3104;50.348;7.620;2022-08-21T13:01:24;3.43;;;2.07;;
6145;SDS011;3104;50.348;7.620;2022-08-21T13:03:54;3.20;;;2.57;;
6145;SDS011;3104;50.348;7.620;2022-08-21T13:06:28;3.93;;;2.63;;
6145;SDS011;3104;50.348;7.620;2022-08-21T13:08:58;4.07;;;2.60;;
6145;SDS011;3104;50.348;7.620;2022-08-21T13:11:31;5.30;;;2.87;;
6145;SDS011;3104;50.348;7.620;2022-08-21T13:13:57;4.40;;;2.33;;
6145;SDS011;3104;50.348;7.620;2022-08-21T13:16:26;3.60;;;2.50;;
6145;SDS011;3104;50.348;7.620;2022-08-21T13:21:58;4.87;;;2.57;;
6145;SDS011;3104;50.348;7.620;2022-08-21T13:24:19;4.83;;;2.67;;
6145;SDS011;3104;50.348;7.620;2022-08-21T13:26:47;2.83;;;2.60;;
6145;SDS011;3104;50.348;7.620;2022-08-21T13:29:15;4.63;;;2.17;;
6145;SDS011;3104;50.348;7.620;2022-08-21T13:31:47;3.27;;;2.50;;
6145;SDS011;3104;50.348;7.620;2022-08-21T13:34:17;2.90;;;2.17;;
6145;SDS011;3104;50.348;7.620;2022-08-21T13:36:44;2.70;;;2.50;;
6145;SDS011;3104;50.348;7.620;2022-08-21T13:39:12;5.00;;;2.63;;
6145;SDS011;3104;50.348;7.620;2022-08-21T13:41:43;2.80;;;2.30;;
6145;SDS011;3104;50.348;7.620;2022-08-21T13:44:15;4.00;;;2.10;;
6145;SDS011;3104;50.348;7.620;2022-08-21T13:46:44;3.20;;;2.63;;
6145;SDS011;3104;50.348;7.620;2022-08-21T13:49:12;2.63;;;2.43;;
6145;SDS011;3104;50.348;7.620;2022-08-21T13:51:40;4.00;;;2.90;;
6145;SDS011;3104;50.348;7.620;2022-08-21T13:54:22;4.40;;;2.40;;
6145;SDS011;3104;50.348;7.620;2022-08-21T13:56:49;4.13;;;2.57;;
6145;SDS011;3104;50.348;7.620;2022-08-21T13:59:28;3.70;;;2.70;;
6145;SDS011;3104;50.348;7.620;2022-08-21T14:04:39;4.70;;;2.47;;
6145;SDS011;3104;50.348;7.620;2022-08-21T14:07:31;3.07;;;2.70;;
6145;SDS011;3104;50.348;7.620;2022-08-21T14:10:04;4.17;;;2.50;;
6145;SDS011;3104;50.348;7.620;2022-08-21T14:15:29;2.73;;;2.17;;
6145;SDS011;3104;50.348;7.620;2022-08-21T14:18:07;3.23;;;2.13;;
6145;SDS011;3104;50.348;7.620;2022-08-21T14:20:43;4.97;;;2.60;;
6145;SDS011;3104;50.348;7.620;2022-08-21T14:23:10;3.47;;;2.40;;
6145;SDS011;3104;50.348;7.620;2022-08-21T14:25:42;2.40;;;2.20;;
6145;SDS011;3104;50.348;7.620;2022-08-21T14:30:58;2.47;;;2.27;;
6145;SDS011;3104;50.348;7.620;2022-08-21T14:33:35;3.03;;;2.13;;
6145;SDS011;3104;50.348;7.620;2022-08-21T14:36:00;4.70;;;2.70;;
6145;SDS011;3104;50.348;7.620;2022-08-21T14:38:27;2.33;;;2.10;;
6145;SDS011;3104;50.348;7.620;2022-08-21T14:40:57;4.13;;;2.57;;
6145;SDS011;3104;50.348;7.620;2022-08-21T14:43:26;3.87;;;2.40;;
6145;SDS011;3104;50.348;7.620;2022-08-21T14:45:53;2.13;;;2.00;;
6145;SDS011;3104;50.348;7.620;2022-08-21T14:48:19;3.90;;;2.57;;
6145;SDS011;3104;50.348;7.620;2022-08-21T14:50:45;3.77;;;2.70;;
6145;SDS011;3104;50.348;7.620;2022-08-21T14:53:11;2.77;;;2.30;;
6145;SDS011;3104;50.348;7.620;2022-08-21T14:55:37;2.70;;;2.50;;
6145;SDS011;3104;50.348;7.620;2022-08-21T14:58:22;4.70;;;2.73;;
6145;SDS011;3104;50.348;7.620;2022-08-21T15:00:49;4.10;;;2.60;;
6145;SDS011;3104;50.348;7.620;2022-08-21T15:03:17;2.60;;;2.40;;
6145;SDS011;3104;50.348;7.620;2022-08-21T15:05:43;2.70;;;2.50;;
6145;SDS011;3104;50.348;7.620;2022-08-21T15:08:09;4.07;;;3.10;;
6145;SDS011;3104;50.348;7.620;2022-08-21T15:10:35;5.27;;;2.47;;
6145;SDS011;3104;50.348;7.620;2022-08-21T15:13:02;5.03;;;3.20;;
6145;SDS011;3104;50.348;7.620;2022-08-21T15:15:32;2.80;;;2.60;;
6145;SDS011;3104;50.348;7.620;2022-08-21T15:18:03;3.90;;;2.40;;
6145;SDS011;3104;50.348;7.620;2022-08-21T15:20:29;2.80;;;2.47;;
6145;SDS011;3104;50.348;7.620;2022-08-21T15:22:55;4.70;;;2.60;;
6145;SDS011;3104;50.348;7.620;2022-08-21T15:25:20;2.40;;;2.20;;
6145;SDS011;3104;50.348;7.620;2022-08-21T15:27:46;2.90;;;2.57;;
6145;SDS011;3104;50.348;7.620;2022-08-21T15:30:12;5.20;;;2.73;;
6145;SDS011;3104;50.348;7.620;2022-08-21T15:32:37;4.53;;;2.13;;
6145;SDS011;3104;50.348;7.620;2022-08-21T15:35:04;12.00;;;7.67;;
6145;SDS011;3104;50.348;7.620;2022-08-21T15:37:30;11.63;;;8.50;;
6145;SDS011;3104;50.348;7.620;2022-08-21T15:39:55;3.70;;;2.87;;
6145;SDS011;3104;50.348;7.620;2022-08-21T15:42:21;3.93;;;2.53;;
6145;SDS011;3104;50.348;7.620;2022-08-21T15:44:49;4.90;;;4.57;;
6145;SDS011;3104;50.348;7.620;2022-08-21T15:47:16;3.00;;;2.60;;
6145;SDS011;3104;50.348;7.620;2022-08-21T15:49:44;4.80;;;3.07;;
6145;SDS011;3104;50.348;7.620;2022-08-21T15:52:16;4.77;;;2.70;;
6145;SDS011;3104;50.348;7.620;2022-08-21T15:54:43;3.03;;;2.73;;
6145;SDS011;3104;50.348;7.620;2022-08-21T15:57:14;2.50;;;2.27;;
6145;SDS011;3104;50.348;7.620;2022-08-21T15:59:42;2.20;;;2.00;;
6145;SDS011;3104;50.348;7.620;2022-08-21T16:02:12;2.57;;;2.37;;
6145;SDS011;3104;50.348;7.620;2022-08-21T16:04:40;2.70;;;2.50;;
6145;SDS011;3104;50.348;7.620;2022-08-21T16:07:06;2.50;;;2.30;;
6145;SDS011;3104;50.348;7.620;2022-08-21T16:09:32;4.67;;;2.50;;
6145;SDS011;3104;50.348;7.620;2022-08-21T16:11:58;3.20;;;2.70;;
6145;SDS011;3104;50.348;7.620;2022-08-21T16:14:25;4.17;;;2.30;;
6145;SDS011;3104;50.348;7.620;2022-08-21T16:16:52;4.17;;;2.17;;
6145;SDS011;3104;50.348;7.620;2022-08-21T16:19:18;5.20;;;2.73;;
6145;SDS011;3104;50.348;7.620;2022-08-21T16:21:45;4.70;;;2.43;;
6145;SDS011;3104;50.348;7.620;2022-08-21T16:24:11;2.93;;;2.30;;
6145;SDS011;3104;50.348;7.620;2022-08-21T16:26:37;2.60;;;2.40;;
6145;SDS011;3104;50.348;7.620;2022-08-21T16:29:03;7.10;;;2.57;;
6145;SDS011;3104;50.348;7.620;2022-08-21T16:31:30;3.87;;;2.53;;
6145;SDS011;3104;50.348;7.620;2022-08-21T16:33:57;2.17;;;2.03;;
6145;SDS011;3104;50.348;7.620;2022-08-21T16:36:23;4.70;;;2.83;;
6145;SDS011;3104;50.348;7.620;2022-08-21T16:38:53;4.20;;;2.60;;
6145;SDS011;3104;50.348;7.620;2022-08-21T16:41:20;2.23;;;2.03;;
6145;SDS011;3104;50.348;7.620;2022-08-21T16:43:47;2.17;;;2.00;;
6145;SDS011;3104;50.348;7.620;2022-08-21T16:46:14;3.87;;;2.53;;
6145;SDS011;3104;50.348;7.620;2022-08-21T16:48:41;2.43;;;2.23;;
6145;SDS011;3104;50.348;7.620;2022-08-21T16:51:12;5.33;;;2.50;;
6145;SDS011;3104;50.348;7.620;2022-08-21T16:53:38;3.57;;;2.67;;
6145;SDS011;3104;50.348;7.620;2022-08-21T16:56:04;2.73;;;2.53;;
6145;SDS011;3104;50.348;7.620;2022-08-21T16:58:34;3.40;;;2.63;;
6145;SDS011;3104;50.348;7.620;2022-08-21T17:01:04;4.03;;;2.23;;
6145;SDS011;3104;50.348;7.620;2022-08-21T17:03:33;5.03;;;2.60;;
6145;SDS011;3104;50.348;7.620;2022-08-21T17:06:03;3.70;;;2.30;;
6145;SDS011;3104;50.348;7.620;2022-08-21T17:08:29;2.60;;;2.40;;
6145;SDS011;3104;50.348;7.620;2022-08-21T17:10:55;3.07;;;2.70;;